sensor_id;sensor_type;location;lat;lon;timestamp;P1;durP1;ratioP1;P2;durP2;ratioP2
63201;SDS011;49296;48.188;11.566;2023-03-12T00:01:11;6.13;;;3.42;;
63201;SDS011;49296;48.188;11.566;2023-03-12T00:03:39;6.93;;;3.67;;
63201;SDS011;49296;48.188;11.566;2023-03-12T00:06:06;6.88;;;3.78;;
63201;SDS011;49296;48.188;11.566;2023-03-12T00:08:33;7.18;;;3.65;;
63201;SDS011;49296;48.188;11.566;2023-03-12T00:10:59;7.60;;;4.15;;
63201;SDS011;49296;48.188;11.566;2023-03-12T00:13:31;8.18;;;4.88;;
63201;SDS011;49296;48.188;11.566;2023-03-12T00:16:01;6.15;;;3.92;;
63201;SDS011;49296;48.188;11.566;2023-03-12T00:18:29;8.65;;;4.50;;
63201;SDS011;49296;48.188;11.566;2023-03-12T00:20:56;7.47;;;4.47;;
63201;SDS011;49296;48.188;11.566;2023-03-12T00:23:22;10.02;;;4.82;;
63201;SDS011;49296;48.188;11.566;2023-03-12T00:25:49;9.50;;;4.57;;
63201;SDS011;49296;48.188;11.566;2023-03-12T00:28:16;9.02;;;4.65;;
63201;SDS011;49296;48.188;11.566;2023-03-12T00:30:44;9.05;;;4.97;;
63201;SDS011;49296;48.188;11.566;2023-03-12T00:33:10;8.10;;;4.85;;
63201;SDS011;49296;48.188;11.566;2023-03-12T00:35:38;11.02;;;5.38;;
63201;SDS011;49296;48.188;11.566;2023-03-12T00:38:04;8.60;;;4.82;;
63201;SDS011;49296;48.188;11.566;2023-03-12T00:40:31;7.78;;;5.13;;
63201;SDS011;49296;48.188;11.566;2023-03-12T00:42:58;8.85;;;4.80;;
63201;SDS011;49296;48.188;11.566;2023-03-12T00:45:24;7.07;;;3.90;;
63201;SDS011;49296;48.188;11.566;2023-03-12T00:47:52;7.38;;;4.40;;
63201;SDS011;49296;48.188;11.566;2023-03-12T00:50:19;7.40;;;5.10;;
63201;SDS011;49296;48.188;11.566;2023-03-12T00:52:46;8.70;;;4.25;;
63201;SDS011;49296;48.188;11.566;2023-03-12T00:55:12;10.18;;;4.78;;
63201;SDS011;49296;48.188;11.566;2023-03-12T00:57:39;9.90;;;4.32;;
63201;SDS011;49296;48.188;11.566;2023-03-12T01:00:06;8.68;;;4.57;;
63201;SDS011;49296;48.188;11.566;2023-03-12T01:02:34;7.57;;;4.18;;
63201;SDS011;49296;48.188;11.566;2023-03-12T01:05:03;6.82;;;4.25;;
63201;SDS011;49296;48.188;11.566;2023-03-12T01:07:30;9.50;;;4.90;;
63201;SDS011;49296;48.188;11.566;2023-03-12T01:09:57;6.57;;;4.22;;
63201;SDS011;49296;48.188;11.566;2023-03-12T01:12:23;8.82;;;4.72;;
63201;SDS011;49296;48.188;11.566;2023-03-12T01:14:50;9.23;;;4.30;;
63201;SDS011;49296;48.188;11.566;2023-03-12T01:17:17;9.77;;;4.53;;
63201;SDS011;49296;48.188;11.566;2023-03-12T01:19:43;8.75;;;4.35;;
63201;SDS011;49296;48.188;11.566;2023-03-12T01:22:11;7.80;;;3.75;;
63201;SDS011;49296;48.188;11.566;2023-03-12T01:24:39;6.95;;;4.68;;
63201;SDS011;49296;48.188;11.566;2023-03-12T01:27:06;9.43;;;4.57;;
63201;SDS011;49296;48.188;11.566;2023-03-12T01:29:32;9.10;;;4.53;;
63201;SDS011;49296;48.188;11.566;2023-03-12T01:31:59;8.63;;;4.63;;
63201;SDS011;49296;48.188;11.566;2023-03-12T01:34:25;7.80;;;4.68;;
63201;SDS011;49296;48.188;11.566;2023-03-12T01:36:52;7.47;;;4.32;;
63201;SDS011;49296;48.188;11.566;2023-03-12T01:39:22;8.15;;;4.60;;
63201;SDS011;49296;48.188;11.566;2023-03-12T01:41:49;8.80;;;4.97;;
63201;SDS011;49296;48.188;11.566;2023-03-12T01:44:16;8.68;;;4.82;;
63201;SDS011;49296;48.188;11.566;2023-03-12T01:46:43;11.07;;;4.63;;
63201;SDS011;49296;48.188;11.566;2023-03-12T01:49:10;8.15;;;4.70;;
63201;SDS011;49296;48.188;11.566;2023-03-12T01:51:40;7.72;;;4.00;;
63201;SDS011;49296;48.188;11.566;2023-03-12T01:54:12;8.30;;;4.55;;
63201;SDS011;49296;48.188;11.566;2023-03-12T01:56:43;6.97;;;3.67;;
63201;SDS011;49296;48.188;11.566;2023-03-12T01:59:13;7.03;;;4.25;;
63201;SDS011;49296;48.188;11.566;2023-03-12T02:01:42;8.32;;;4.10;;
63201;SDS011;49296;48.188;11.566;2023-03-12T02:04:10;8.13;;;4.13;;
63201;SDS011;49296;48.188;11.566;2023-03-12T02:06:38;9.88;;;4.57;;
63201;SDS011;49296;48.188;11.566;2023-03-12T02:09:10;9.95;;;4.93;;
63201;SDS011;49296;48.188;11.566;2023-03-12T02:11:38;8.20;;;4.80;;
63201;SDS011;49296;48.188;11.566;2023-03-12T02:14:06;9.20;;;4.32;;
63201;SDS011;49296;48.188;11.566;2023-03-12T02:16:32;8.65;;;4.38;;
63201;SDS011;49296;48.188;11.566;2023-03-12T02:18:59;9.90;;;4.90;;
63201;SDS011;49296;48.188;11.566;2023-03-12T02:21:28;7.90;;;4.78;;
63201;SDS011;49296;48.188;11.566;2023-03-12T02:24:00;8.63;;;4.32;;
63201;SDS011;49296;48.188;11.566;2023-03-12T02:26:33;6.82;;;3.83;;
63201;SDS011;49296;48.188;11.566;2023-03-12T02:29:01;7.50;;;4.18;;
63201;SDS011;49296;48.188;11.566;2023-03-12T02:31:30;7.85;;;4.75;;
63201;SDS011;49296;48.188;11.566;2023-03-12T02:34:02;8.65;;;4.90;;
63201;SDS011;49296;48.188;11.566;2023-03-12T02:36:29;7.35;;;4.30;;
63201;SDS011;49296;48.188;11.566;2023-03-12T02:38:56;10.23;;;4.72;;
63201;SDS011;49296;48.188;11.566;2023-03-12T02:41:23;9.23;;;4.57;;
63201;SDS011;49296;48.188;11.566;2023-03-12T02:43:57;7.90;;;4.85;;
63201;SDS011;49296;48.188;11.566;2023-03-12T02:46:28;10.55;;;4.70;;
63201;SDS011;49296;48.188;11.566;2023-03-12T02:48:57;8.40;;;4.63;;
63201;SDS011;49296;48.188;11.566;2023-03-12T02:51:24;11.80;;;5.15;;
63201;SDS011;49296;48.188;11.566;2023-03-12T02:53:51;8.45;;;4.45;;
63201;SDS011;49296;48.188;11.566;2023-03-12T02:56:19;8.10;;;4.63;;
63201;SDS011;49296;48.188;11.566;2023-03-12T02:58:47;8.10;;;5.15;;
63201;SDS011;49296;48.188;11.566;2023-03-12T03:01:15;10.75;;;5.28;;
63201;SDS011;49296;48.188;11.566;2023-03-12T03:03:43;8.70;;;5.82;;
63201;SDS011;49296;48.188;11.566;2023-03-12T03:06:10;11.02;;;6.10;;
63201;SDS011;49296;48.188;11.566;2023-03-12T03:08:37;9.48;;;6.00;;
63201;SDS011;49296;48.188;11.566;2023-03-12T03:11:04;11.70;;;6.40;;
63201;SDS011;49296;48.188;11.566;2023-03-12T03:13:30;10.57;;;5.82;;
63201;SDS011;49296;48.188;11.566;2023-03-12T03:15:58;9.90;;;5.90;;
63201;SDS011;49296;48.188;11.566;2023-03-12T03:18:27;10.23;;;6.43;;
63201;SDS011;49296;48.188;11.566;2023-03-12T03:20:55;12.38;;;6.95;;
63201;SDS011;49296;48.188;11.566;2023-03-12T03:23:22;13.45;;;7.18;;
63201;SDS011;49296;48.188;11.566;2023-03-12T03:25:49;11.23;;;6.47;;
63201;SDS011;49296;48.188;11.566;2023-03-12T03:28:16;11.82;;;7.07;;
63201;SDS011;49296;48.188;11.566;2023-03-12T03:30:43;10.35;;;6.57;;
63201;SDS011;49296;48.188;11.566;2023-03-12T03:33:10;11.30;;;6.03;;
63201;SDS011;49296;48.188;11.566;2023-03-12T03:35:38;14.20;;;6.53;;
63201;SDS011;49296;48.188;11.566;2023-03-12T03:38:05;12.40;;;7.20;;
63201;SDS011;49296;48.188;11.566;2023-03-12T03:40:32;14.23;;;7.60;;
63201;SDS011;49296;48.188;11.566;2023-03-12T03:42:59;11.35;;;6.22;;
63201;SDS011;49296;48.188;11.566;2023-03-12T03:45:25;11.27;;;7.00;;
63201;SDS011;49296;48.188;11.566;2023-03-12T03:47:52;13.70;;;7.18;;
63201;SDS011;49296;48.188;11.566;2023-03-12T03:50:19;12.48;;;7.05;;
63201;SDS011;49296;48.188;11.566;2023-03-12T03:52:47;11.38;;;6.65;;
63201;SDS011;49296;48.188;11.566;2023-03-12T03:55:14;13.80;;;6.47;;
63201;SDS011;49296;48.188;11.566;2023-03-12T03:57:40;10.57;;;6.20;;
63201;SDS011;49296;48.188;11.566;2023-03-12T04:00:07;13.13;;;7.00;;
63201;SDS011;49296;48.188;11.566;2023-03-12T04:02:37;13.05;;;6.57;;
63201;SDS011;49296;48.188;11.566;2023-03-12T04:05:04;13.35;;;7.07;;
63201;SDS011;49296;48.188;11.566;2023-03-12T04:07:31;14.07;;;7.13;;
63201;SDS011;49296;48.188;11.566;2023-03-12T04:10:00;14.88;;;7.15;;
63201;SDS011;49296;48.188;11.566;2023-03-12T04:12:26;12.57;;;7.35;;
63201;SDS011;49296;48.188;11.566;2023-03-12T04:14:53;14.48;;;8.57;;
63201;SDS011;49296;48.188;11.566;2023-03-12T04:17:20;13.95;;;8.38;;
63201;SDS011;49296;48.188;11.566;2023-03-12T04:19:47;14.80;;;7.55;;
63201;SDS011;49296;48.188;11.566;2023-03-12T04:22:14;14.68;;;7.70;;
63201;SDS011;49296;48.188;11.566;2023-03-12T04:24:40;16.58;;;8.13;;
63201;SDS011;49296;48.188;11.566;2023-03-12T04:27:08;17.77;;;9.18;;
63201;SDS011;49296;48.188;11.566;2023-03-12T04:29:35;18.52;;;10.30;;
63201;SDS011;49296;48.188;11.566;2023-03-12T04:32:03;16.83;;;9.10;;
63201;SDS011;49296;48.188;11.566;2023-03-12T04:34:30;18.23;;;9.40;;
63201;SDS011;49296;48.188;11.566;2023-03-12T04:36:57;17.30;;;9.13;;
63201;SDS011;49296;48.188;11.566;2023-03-12T04:39:26;17.80;;;9.48;;
63201;SDS011;49296;48.188;11.566;2023-03-12T04:41:52;16.30;;;9.50;;
63201;SDS011;49296;48.188;11.566;2023-03-12T04:44:20;16.63;;;9.02;;
63201;SDS011;49296;48.188;11.566;2023-03-12T04:46:47;15.27;;;8.25;;
63201;SDS011;49296;48.188;11.566;2023-03-12T04:49:14;13.52;;;8.13;;
63201;SDS011;49296;48.188;11.566;2023-03-12T04:51:40;12.93;;;7.43;;
63201;SDS011;49296;48.188;11.566;2023-03-12T04:54:07;16.30;;;8.43;;
63201;SDS011;49296;48.188;11.566;2023-03-12T04:56:34;15.93;;;8.38;;
63201;SDS011;49296;48.188;11.566;2023-03-12T04:59:01;18.65;;;9.18;;
63201;SDS011;49296;48.188;11.566;2023-03-12T05:01:29;18.90;;;9.55;;
63201;SDS011;49296;48.188;11.566;2023-03-12T05:03:57;20.95;;;10.02;;
63201;SDS011;49296;48.188;11.566;2023-03-12T05:06:24;17.02;;;9.32;;
63201;SDS011;49296;48.188;11.566;2023-03-12T05:08:51;16.92;;;8.82;;
63201;SDS011;49296;48.188;11.566;2023-03-12T05:11:18;16.95;;;9.43;;
63201;SDS011;49296;48.188;11.566;2023-03-12T05:13:45;19.45;;;9.90;;
63201;SDS011;49296;48.188;11.566;2023-03-12T05:16:13;18.73;;;9.65;;
63201;SDS011;49296;48.188;11.566;2023-03-12T05:18:42;19.33;;;10.25;;
63201;SDS011;49296;48.188;11.566;2023-03-12T05:21:10;19.90;;;10.85;;
63201;SDS011;49296;48.188;11.566;2023-03-12T05:23:38;20.10;;;11.20;;
63201;SDS011;49296;48.188;11.566;2023-03-12T05:26:06;17.65;;;9.02;;
63201;SDS011;49296;48.188;11.566;2023-03-12T05:28:40;17.60;;;8.88;;
63201;SDS011;49296;48.188;11.566;2023-03-12T05:31:07;17.65;;;9.60;;
63201;SDS011;49296;48.188;11.566;2023-03-12T05:33:34;19.10;;;9.55;;
63201;SDS011;49296;48.188;11.566;2023-03-12T05:36:03;18.33;;;10.68;;
63201;SDS011;49296;48.188;11.566;2023-03-12T05:38:30;18.60;;;9.93;;
63201;SDS011;49296;48.188;11.566;2023-03-12T05:40:57;15.70;;;8.50;;
63201;SDS011;49296;48.188;11.566;2023-03-12T05:43:24;16.80;;;8.75;;
63201;SDS011;49296;48.188;11.566;2023-03-12T05:45:52;17.58;;;9.50;;
63201;SDS011;49296;48.188;11.566;2023-03-12T05:48:19;19.33;;;9.77;;
63201;SDS011;49296;48.188;11.566;2023-03-12T05:50:45;16.38;;;8.90;;
63201;SDS011;49296;48.188;11.566;2023-03-12T05:53:13;19.25;;;9.95;;
63201;SDS011;49296;48.188;11.566;2023-03-12T05:55:40;16.92;;;8.52;;
63201;SDS011;49296;48.188;11.566;2023-03-12T05:58:07;15.35;;;8.43;;
63201;SDS011;49296;48.188;11.566;2023-03-12T06:00:35;17.33;;;9.65;;
63201;SDS011;49296;48.188;11.566;2023-03-12T06:03:03;19.33;;;10.10;;
63201;SDS011;49296;48.188;11.566;2023-03-12T06:05:29;17.85;;;9.10;;
63201;SDS011;49296;48.188;11.566;2023-03-12T06:07:56;16.05;;;8.15;;
63201;SDS011;49296;48.188;11.566;2023-03-12T06:10:24;15.13;;;8.35;;
63201;SDS011;49296;48.188;11.566;2023-03-12T06:12:53;13.73;;;7.83;;
63201;SDS011;49296;48.188;11.566;2023-03-12T06:15:20;15.15;;;7.95;;
63201;SDS011;49296;48.188;11.566;2023-03-12T06:17:46;15.27;;;7.90;;
63201;SDS011;49296;48.188;11.566;2023-03-12T06:20:14;14.57;;;7.85;;
63201;SDS011;49296;48.188;11.566;2023-03-12T06:22:40;15.50;;;8.15;;
63201;SDS011;49296;48.188;11.566;2023-03-12T06:25:07;13.32;;;6.85;;
63201;SDS011;49296;48.188;11.566;2023-03-12T06:27:36;13.65;;;7.82;;
63201;SDS011;49296;48.188;11.566;2023-03-12T06:30:03;13.05;;;6.40;;
63201;SDS011;49296;48.188;11.566;2023-03-12T06:32:30;14.90;;;7.25;;
63201;SDS011;49296;48.188;11.566;2023-03-12T06:34:57;12.32;;;7.63;;
63201;SDS011;49296;48.188;11.566;2023-03-12T06:37:25;12.93;;;7.15;;
63201;SDS011;49296;48.188;11.566;2023-03-12T06:39:52;13.73;;;7.78;;
63201;SDS011;49296;48.188;11.566;2023-03-12T06:42:19;12.65;;;7.40;;
63201;SDS011;49296;48.188;11.566;2023-03-12T06:44:48;10.25;;;5.47;;
63201;SDS011;49296;48.188;11.566;2023-03-12T06:47:14;11.77;;;5.60;;
63201;SDS011;49296;48.188;11.566;2023-03-12T06:49:41;9.52;;;5.95;;
63201;SDS011;49296;48.188;11.566;2023-03-12T06:52:08;10.70;;;5.55;;
63201;SDS011;49296;48.188;11.566;2023-03-12T06:54:34;10.60;;;5.72;;
63201;SDS011;49296;48.188;11.566;2023-03-12T06:57:01;11.57;;;5.30;;
63201;SDS011;49296;48.188;11.566;2023-03-12T06:59:28;10.70;;;5.43;;
63201;SDS011;49296;48.188;11.566;2023-03-12T07:01:56;8.32;;;5.40;;
63201;SDS011;49296;48.188;11.566;2023-03-12T07:04:22;10.63;;;5.43;;
63201;SDS011;49296;48.188;11.566;2023-03-12T07:06:49;9.68;;;4.40;;
63201;SDS011;49296;48.188;11.566;2023-03-12T07:09:16;9.88;;;4.43;;
63201;SDS011;49296;48.188;11.566;2023-03-12T07:11:43;9.25;;;4.90;;
63201;SDS011;49296;48.188;11.566;2023-03-12T07:14:10;8.52;;;4.13;;
63201;SDS011;49296;48.188;11.566;2023-03-12T07:16:36;7.80;;;4.28;;
63201;SDS011;49296;48.188;11.566;2023-03-12T07:19:04;9.25;;;4.60;;
63201;SDS011;49296;48.188;11.566;2023-03-12T07:21:34;7.72;;;4.20;;
63201;SDS011;49296;48.188;11.566;2023-03-12T07:24:01;8.55;;;4.00;;
63201;SDS011;49296;48.188;11.566;2023-03-12T07:26:31;9.07;;;4.15;;
63201;SDS011;49296;48.188;11.566;2023-03-12T07:28:59;6.93;;;3.50;;
63201;SDS011;49296;48.188;11.566;2023-03-12T07:31:26;6.57;;;3.40;;
63201;SDS011;49296;48.188;11.566;2023-03-12T07:33:53;7.03;;;3.70;;
63201;SDS011;49296;48.188;11.566;2023-03-12T07:36:21;7.88;;;3.67;;
63201;SDS011;49296;48.188;11.566;2023-03-12T07:38:47;7.43;;;4.05;;
63201;SDS011;49296;48.188;11.566;2023-03-12T07:41:14;8.55;;;4.05;;
63201;SDS011;49296;48.188;11.566;2023-03-12T07:43:41;8.48;;;3.75;;
63201;SDS011;49296;48.188;11.566;2023-03-12T07:46:07;6.40;;;3.42;;
63201;SDS011;49296;48.188;11.566;2023-03-12T07:48:34;6.78;;;3.50;;
63201;SDS011;49296;48.188;11.566;2023-03-12T07:51:01;6.88;;;3.50;;
63201;SDS011;49296;48.188;11.566;2023-03-12T07:53:29;7.18;;;3.53;;
63201;SDS011;49296;48.188;11.566;2023-03-12T07:55:55;6.78;;;3.78;;
63201;SDS011;49296;48.188;11.566;2023-03-12T07:58:22;6.70;;;3.50;;
63201;SDS011;49296;48.188;11.566;2023-03-12T08:00:49;6.85;;;3.42;;
63201;SDS011;49296;48.188;11.566;2023-03-12T08:03:17;6.10;;;3.33;;
63201;SDS011;49296;48.188;11.566;2023-03-12T08:05:44;6.13;;;3.20;;
63201;SDS011;49296;48.188;11.566;2023-03-12T08:08:11;6.75;;;3.50;;
63201;SDS011;49296;48.188;11.566;2023-03-12T08:10:39;7.63;;;3.63;;
63201;SDS011;49296;48.188;11.566;2023-03-12T08:13:09;8.40;;;4.38;;
63201;SDS011;49296;48.188;11.566;2023-03-12T08:15:35;7.97;;;3.60;;
63201;SDS011;49296;48.188;11.566;2023-03-12T08:18:02;7.40;;;3.97;;
63201;SDS011;49296;48.188;11.566;2023-03-12T08:20:29;7.60;;;3.50;;
63201;SDS011;49296;48.188;11.566;2023-03-12T08:22:55;6.88;;;3.50;;
63201;SDS011;49296;48.188;11.566;2023-03-12T08:25:22;7.80;;;3.63;;
63201;SDS011;49296;48.188;11.566;2023-03-12T08:27:50;7.30;;;3.67;;
63201;SDS011;49296;48.188;11.566;2023-03-12T08:30:17;8.02;;;3.05;;
63201;SDS011;49296;48.188;11.566;2023-03-12T08:32:45;5.32;;;3.10;;
63201;SDS011;49296;48.188;11.566;2023-03-12T08:35:11;6.00;;;2.80;;
63201;SDS011;49296;48.188;11.566;2023-03-12T08:37:38;6.57;;;3.30;;
63201;SDS011;49296;48.188;11.566;2023-03-12T08:40:06;5.03;;;2.75;;
63201;SDS011;49296;48.188;11.566;2023-03-12T08:42:37;7.55;;;3.25;;
63201;SDS011;49296;48.188;11.566;2023-03-12T08:45:05;7.22;;;3.63;;
63201;SDS011;49296;48.188;11.566;2023-03-12T08:47:33;6.30;;;3.53;;
63201;SDS011;49296;48.188;11.566;2023-03-12T08:50:00;6.95;;;3.13;;
63201;SDS011;49296;48.188;11.566;2023-03-12T08:52:27;7.38;;;3.15;;
63201;SDS011;49296;48.188;11.566;2023-03-12T08:54:54;7.25;;;3.25;;
63201;SDS011;49296;48.188;11.566;2023-03-12T08:57:20;6.95;;;2.85;;
63201;SDS011;49296;48.188;11.566;2023-03-12T08:59:47;5.50;;;2.60;;
63201;SDS011;49296;48.188;11.566;2023-03-12T09:02:15;11.93;;;3.33;;
63201;SDS011;49296;48.188;11.566;2023-03-12T09:04:41;21.85;;;3.90;;
63201;SDS011;49296;48.188;11.566;2023-03-12T09:07:12;6.47;;;3.03;;
63201;SDS011;49296;48.188;11.566;2023-03-12T09:09:39;8.43;;;3.20;;
63201;SDS011;49296;48.188;11.566;2023-03-12T09:12:06;5.90;;;2.92;;
63201;SDS011;49296;48.188;11.566;2023-03-12T09:14:32;7.70;;;3.13;;
63201;SDS011;49296;48.188;11.566;2023-03-12T09:16:59;6.97;;;3.22;;
63201;SDS011;49296;48.188;11.566;2023-03-12T09:19:27;5.57;;;3.28;;
63201;SDS011;49296;48.188;11.566;2023-03-12T09:21:54;5.50;;;2.90;;
63201;SDS011;49296;48.188;11.566;2023-03-12T09:24:21;8.85;;;4.32;;
63201;SDS011;49296;48.188;11.566;2023-03-12T09:26:48;7.05;;;3.30;;
63201;SDS011;49296;48.188;11.566;2023-03-12T09:29:15;8.30;;;4.00;;
63201;SDS011;49296;48.188;11.566;2023-03-12T09:31:41;8.43;;;3.83;;
63201;SDS011;49296;48.188;11.566;2023-03-12T09:34:08;6.95;;;3.95;;
63201;SDS011;49296;48.188;11.566;2023-03-12T09:36:36;6.95;;;3.70;;
63201;SDS011;49296;48.188;11.566;2023-03-12T09:39:03;6.22;;;3.80;;
63201;SDS011;49296;48.188;11.566;2023-03-12T09:41:30;9.80;;;3.63;;
63201;SDS011;49296;48.188;11.566;2023-03-12T09:44:01;6.57;;;3.78;;
63201;SDS011;49296;48.188;11.566;2023-03-12T09:46:32;7.75;;;3.85;;
63201;SDS011;49296;48.188;11.566;2023-03-12T09:49:03;7.03;;;3.72;;
63201;SDS011;49296;48.188;11.566;2023-03-12T09:51:39;6.97;;;3.30;;
63201;SDS011;49296;48.188;11.566;2023-03-12T09:54:12;6.75;;;3.58;;
63201;SDS011;49296;48.188;11.566;2023-03-12T09:56:49;7.38;;;3.80;;
63201;SDS011;49296;48.188;11.566;2023-03-12T09:59:17;7.72;;;4.03;;
63201;SDS011;49296;48.188;11.566;2023-03-12T10:01:46;5.55;;;3.30;;
63201;SDS011;49296;48.188;11.566;2023-03-12T10:04:19;5.95;;;3.10;;
63201;SDS011;49296;48.188;11.566;2023-03-12T10:06:54;6.30;;;3.58;;
63201;SDS011;49296;48.188;11.566;2023-03-12T10:12:18;6.18;;;3.35;;
63201;SDS011;49296;48.188;11.566;2023-03-12T10:14:59;7.85;;;3.58;;
63201;SDS011;49296;48.188;11.566;2023-03-12T10:17:41;6.65;;;3.60;;
63201;SDS011;49296;48.188;11.566;2023-03-12T10:20:26;7.32;;;3.50;;
63201;SDS011;49296;48.188;11.566;2023-03-12T10:23:09;6.05;;;3.15;;
63201;SDS011;49296;48.188;11.566;2023-03-12T10:25:39;7.47;;;3.40;;
63201;SDS011;49296;48.188;11.566;2023-03-12T10:28:11;20.00;;;12.25;;
63201;SDS011;49296;48.188;11.566;2023-03-12T10:30:47;11.70;;;6.00;;
63201;SDS011;49296;48.188;11.566;2023-03-12T10:33:19;11.25;;;6.72;;
63201;SDS011;49296;48.188;11.566;2023-03-12T10:35:47;28.58;;;12.25;;
63201;SDS011;49296;48.188;11.566;2023-03-12T10:38:19;15.70;;;8.18;;
63201;SDS011;49296;48.188;11.566;2023-03-12T10:40:50;5.90;;;3.63;;
63201;SDS011;49296;48.188;11.566;2023-03-12T10:43:17;9.85;;;5.57;;
63201;SDS011;49296;48.188;11.566;2023-03-12T10:45:44;10.55;;;5.03;;
63201;SDS011;49296;48.188;11.566;2023-03-12T10:48:18;7.32;;;4.57;;
63201;SDS011;49296;48.188;11.566;2023-03-12T10:50:59;6.88;;;3.75;;
63201;SDS011;49296;48.188;11.566;2023-03-12T10:53:29;7.80;;;4.05;;
63201;SDS011;49296;48.188;11.566;2023-03-12T10:55:59;8.18;;;5.20;;
63201;SDS011;49296;48.188;11.566;2023-03-12T10:58:35;5.03;;;2.17;;
63201;SDS011;49296;48.188;11.566;2023-03-12T11:01:03;4.18;;;2.05;;
63201;SDS011;49296;48.188;11.566;2023-03-12T11:03:32;4.72;;;2.17;;
63201;SDS011;49296;48.188;11.566;2023-03-12T11:05:59;4.30;;;2.28;;
63201;SDS011;49296;48.188;11.566;2023-03-12T11:08:29;4.32;;;2.35;;
63201;SDS011;49296;48.188;11.566;2023-03-12T11:10:57;5.30;;;2.30;;
63201;SDS011;49296;48.188;11.566;2023-03-12T11:13:27;4.65;;;2.55;;
63201;SDS011;49296;48.188;11.566;2023-03-12T11:15:55;4.70;;;2.63;;
63201;SDS011;49296;48.188;11.566;2023-03-12T11:18:24;4.25;;;2.40;;
63201;SDS011;49296;48.188;11.566;2023-03-12T11:20:54;4.25;;;2.05;;
63201;SDS011;49296;48.188;11.566;2023-03-12T11:23:23;4.78;;;2.40;;
63201;SDS011;49296;48.188;11.566;2023-03-12T11:25:56;6.43;;;2.42;;
63201;SDS011;49296;48.188;11.566;2023-03-12T11:28:27;5.57;;;2.90;;
63201;SDS011;49296;48.188;11.566;2023-03-12T11:31:00;4.57;;;2.55;;
63201;SDS011;49296;48.188;11.566;2023-03-12T11:33:27;6.50;;;3.00;;
63201;SDS011;49296;48.188;11.566;2023-03-12T11:36:02;6.35;;;3.00;;
63201;SDS011;49296;48.188;11.566;2023-03-12T11:38:40;5.15;;;2.58;;
63201;SDS011;49296;48.188;11.566;2023-03-12T11:44:17;8.80;;;3.15;;
63201;SDS011;49296;48.188;11.566;2023-03-12T11:46:51;6.18;;;3.53;;
63201;SDS011;49296;48.188;11.566;2023-03-12T11:49:29;6.57;;;2.38;;
63201;SDS011;49296;48.188;11.566;2023-03-12T11:52:08;5.15;;;2.80;;
63201;SDS011;49296;48.188;11.566;2023-03-12T11:54:55;4.90;;;2.55;;
63201;SDS011;49296;48.188;11.566;2023-03-12T11:57:43;4.28;;;2.60;;
63201;SDS011;49296;48.188;11.566;2023-03-12T12:00:24;4.93;;;3.00;;
63201;SDS011;49296;48.188;11.566;2023-03-12T12:03:03;6.00;;;3.13;;
63201;SDS011;49296;48.188;11.566;2023-03-12T12:05:48;5.88;;;3.10;;
63201;SDS011;49296;48.188;11.566;2023-03-12T12:08:31;4.88;;;2.88;;
63201;SDS011;49296;48.188;11.566;2023-03-12T12:11:09;6.88;;;3.13;;
63201;SDS011;49296;48.188;11.566;2023-03-12T12:13:46;8.63;;;3.80;;
63201;SDS011;49296;48.188;11.566;2023-03-12T12:16:25;6.68;;;3.97;;
63201;SDS011;49296;48.188;11.566;2023-03-12T12:19:06;8.10;;;4.18;;
63201;SDS011;49296;48.188;11.566;2023-03-12T12:24:20;5.78;;;3.10;;
63201;SDS011;49296;48.188;11.566;2023-03-12T12:26:57;5.20;;;3.08;;
63201;SDS011;49296;48.188;11.566;2023-03-12T12:29:35;9.13;;;3.33;;
63201;SDS011;49296;48.188;11.566;2023-03-12T12:32:18;6.45;;;3.30;;
63201;SDS011;49296;48.188;11.566;2023-03-12T12:34:52;5.60;;;3.33;;
63201;SDS011;49296;48.188;11.566;2023-03-12T12:37:34;7.93;;;3.95;;
63201;SDS011;49296;48.188;11.566;2023-03-12T12:40:11;7.80;;;3.80;;
63201;SDS011;49296;48.188;11.566;2023-03-12T12:42:49;7.95;;;4.65;;
63201;SDS011;49296;48.188;11.566;2023-03-12T12:45:20;7.40;;;4.43;;
63201;SDS011;49296;48.188;11.566;2023-03-12T12:47:52;7.78;;;4.35;;
63201;SDS011;49296;48.188;11.566;2023-03-12T12:50:23;9.23;;;4.80;;
63201;SDS011;49296;48.188;11.566;2023-03-12T12:52:56;11.30;;;6.75;;
63201;SDS011;49296;48.188;11.566;2023-03-12T12:55:27;8.40;;;5.20;;
63201;SDS011;49296;48.188;11.566;2023-03-12T12:58:00;8.18;;;4.63;;
63201;SDS011;49296;48.188;11.566;2023-03-12T13:00:33;6.70;;;4.35;;
63201;SDS011;49296;48.188;11.566;2023-03-12T13:03:09;7.53;;;4.75;;
63201;SDS011;49296;48.188;11.566;2023-03-12T13:05:40;8.13;;;4.38;;
63201;SDS011;49296;48.188;11.566;2023-03-12T13:11:02;7.30;;;4.82;;
63201;SDS011;49296;48.188;11.566;2023-03-12T13:13:30;8.00;;;4.03;;
63201;SDS011;49296;48.188;11.566;2023-03-12T13:16:15;7.15;;;4.18;;
63201;SDS011;49296;48.188;11.566;2023-03-12T13:18:55;6.85;;;4.47;;
63201;SDS011;49296;48.188;11.566;2023-03-12T13:21:23;8.38;;;4.72;;
63201;SDS011;49296;48.188;11.566;2023-03-12T13:23:58;7.00;;;4.30;;
63201;SDS011;49296;48.188;11.566;2023-03-12T13:26:41;8.77;;;4.18;;
63201;SDS011;49296;48.188;11.566;2023-03-12T13:29:20;7.05;;;4.18;;
63201;SDS011;49296;48.188;11.566;2023-03-12T13:32:01;7.03;;;4.20;;
63201;SDS011;49296;48.188;11.566;2023-03-12T13:34:40;8.07;;;4.45;;
63201;SDS011;49296;48.188;11.566;2023-03-12T13:37:17;6.88;;;4.30;;
63201;SDS011;49296;48.188;11.566;2023-03-12T13:39:54;7.38;;;4.47;;
63201;SDS011;49296;48.188;11.566;2023-03-12T13:42:33;6.63;;;4.40;;
63201;SDS011;49296;48.188;11.566;2023-03-12T13:45:21;7.22;;;4.68;;
63201;SDS011;49296;48.188;11.566;2023-03-12T13:47:49;8.55;;;5.03;;
63201;SDS011;49296;48.188;11.566;2023-03-12T13:50:23;8.82;;;5.10;;
63201;SDS011;49296;48.188;11.566;2023-03-12T13:52:54;11.25;;;4.50;;
63201;SDS011;49296;48.188;11.566;2023-03-12T13:55:28;8.65;;;4.90;;
63201;SDS011;49296;48.188;11.566;2023-03-12T13:57:58;9.38;;;4.93;;
63201;SDS011;49296;48.188;11.566;2023-03-12T14:00:30;9.77;;;4.82;;
63201;SDS011;49296;48.188;11.566;2023-03-12T14:03:02;9.00;;;4.72;;
63201;SDS011;49296;48.188;11.566;2023-03-12T14:05:43;7.20;;;4.22;;
63201;SDS011;49296;48.188;11.566;2023-03-12T14:08:16;7.63;;;4.57;;
63201;SDS011;49296;48.188;11.566;2023-03-12T14:10:57;7.68;;;4.03;;
63201;SDS011;49296;48.188;11.566;2023-03-12T14:13:36;7.78;;;4.40;;
63201;SDS011;49296;48.188;11.566;2023-03-12T14:16:12;8.18;;;4.90;;
63201;SDS011;49296;48.188;11.566;2023-03-12T14:18:44;9.65;;;4.72;;
63201;SDS011;49296;48.188;11.566;2023-03-12T14:21:14;9.10;;;4.00;;
63201;SDS011;49296;48.188;11.566;2023-03-12T14:23:43;8.97;;;4.17;;
63201;SDS011;49296;48.188;11.566;2023-03-12T14:26:16;7.05;;;4.38;;
63201;SDS011;49296;48.188;11.566;2023-03-12T14:28:46;8.15;;;4.60;;
63201;SDS011;49296;48.188;11.566;2023-03-12T14:31:16;9.93;;;4.68;;
63201;SDS011;49296;48.188;11.566;2023-03-12T14:33:50;8.32;;;3.95;;
63201;SDS011;49296;48.188;11.566;2023-03-12T14:36:22;8.32;;;3.90;;
63201;SDS011;49296;48.188;11.566;2023-03-12T14:38:52;7.68;;;4.20;;
63201;SDS011;49296;48.188;11.566;2023-03-12T14:41:26;9.13;;;4.00;;
63201;SDS011;49296;48.188;11.566;2023-03-12T14:44:03;6.90;;;4.50;;
63201;SDS011;49296;48.188;11.566;2023-03-12T14:46:44;7.10;;;3.70;;
63201;SDS011;49296;48.188;11.566;2023-03-12T14:49:18;6.70;;;3.63;;
63201;SDS011;49296;48.188;11.566;2023-03-12T14:51:46;8.35;;;3.65;;
63201;SDS011;49296;48.188;11.566;2023-03-12T14:54:15;6.35;;;3.83;;
63201;SDS011;49296;48.188;11.566;2023-03-12T14:56:43;6.63;;;2.78;;